Glendale Luke AFB, Arizona
Current Conditions -  °F | °C
As of 6:47 PM on Saturday 25 Oct 2014 (Local Time) from KGEU Reporting Station
Few Clouds Few Clouds  
Wind Chill: 86°   Ceiling: Unl
Heat Index: 86°   Visibility: 20mi
Dew Point: 52°   Wind: 0mph
Humidity: 31%   Direction: NA
Pressure: 29.91"   Gusts: NA
Location:  33.5402°N, 112.349°W
Report Text: KGEU 260147Z 00000KT 20SM FEW120 FEW200 30/11 A2991 RMK LAST
Loading
Personal Weather Stations






























Interactive Weather Map
Tropical Storm Tracking
New forecast layout! Learn more

10-Day Weather Forecast

Advertisements
Track Severe Weather on mobile